Airport Name : Bratsk

Other Name : Bratsk

ICAO : UIBB

IATA : BTK

FAA :

Latitude : 56.370556

Longitude : 101.698331

Country : Russia

Local Date and Time : 15 Jul 2024 23:33

 

TAF (Terminal Aerodrome Forecast)

TAF UIBB 151400Z 1515/1615 31003G08MPS 9999 FEW001 SCT040CB PROB40 TEMPO 1515/1518 -TSRA TEMPO 1603/1615 VRB08MPS -TSRA

 

METAR (METeorological Aerodrome Report)

UIBB 151500Z AUTO 30003MPS 9999 // NSC 18/13 Q1007 RMK QFE713/0950

UIBB 151430Z AUTO 35002MPS 9999 // NSC 19/13 Q1007 RMK QFE712/0950

UIBB 151400Z 32004MPS 290V350 9999 FEW050CB 19/14 Q1007 R30/60D NOSIG RMK QFE713/0950

UIBB 151330Z 27004MPS 9999 SCT050CB 21/15 Q1007 R30/CLRD60 NOSIG RMK QFE712/0950

UIBB 151300Z 23002MPS 200V260 9999 SCT050CB 22/15 Q1007 R30/60D NOSIG RMK QFE712/0950

UIBB 151230Z 19002MPS 9999 SCT050CB 22/15 Q1007 R30/60D NOSIG RMK QFE712/0950

UIBB 151200Z 00000MPS 9999 SCT050CB 23/14 Q1007 R30/60D NOSIG RMK QFE712/0950